createdAt,value
2023-01-15T00:00:21.106Z,7.68
2023-01-15T00:02:50.882Z,7.66
2023-01-15T00:05:20.735Z,7.67
2023-01-15T00:07:51.291Z,7.67
2023-01-15T00:10:21.244Z,7.67
2023-01-15T00:12:53.933Z,7.66
2023-01-15T00:15:23.705Z,7.66
2023-01-15T00:17:53.487Z,7.67
2023-01-15T00:20:23.340Z,7.68
2023-01-15T00:22:53.111Z,7.68
2023-01-15T00:25:35.302Z,7.68
2023-01-15T00:28:07.884Z,7.69
2023-01-15T00:30:37.739Z,7.67
2023-01-15T00:33:07.626Z,7.65
2023-01-15T00:35:37.429Z,7.64
2023-01-15T00:38:07.213Z,7.64
2023-01-15T00:40:37.007Z,7.63
2023-01-15T00:43:09.451Z,7.62
2023-01-15T00:45:39.310Z,7.59
2023-01-15T00:48:09.496Z,7.60
2023-01-15T00:50:39.295Z,7.60
2023-01-15T00:53:09.078Z,7.59
2023-01-15T00:55:38.858Z,7.58
2023-01-15T00:58:11.284Z,7.57
2023-01-15T01:00:41.138Z,7.53
2023-01-15T01:03:11.028Z,7.52
2023-01-15T01:05:41.562Z,7.49
2023-01-15T01:08:11.509Z,7.47
2023-01-15T01:10:41.287Z,7.47
2023-01-15T01:13:14.118Z,7.46
2023-01-15T01:15:43.928Z,7.46
2023-01-15T01:18:13.715Z,7.44
2023-01-15T01:20:43.497Z,7.44
2023-01-15T01:23:13.310Z,7.42
2023-01-15T01:25:45.886Z,7.41
2023-01-15T01:28:18.308Z,7.40
2023-01-15T01:30:48.195Z,7.40
2023-01-15T01:33:18.033Z,7.39
2023-01-15T01:35:51.419Z,7.40
2023-01-15T01:38:21.234Z,7.40
2023-01-15T01:40:51.066Z,7.40
2023-01-15T01:43:26.142Z,7.40
2023-01-15T01:45:56.269Z,7.39
2023-01-15T01:48:32.004Z,7.40
2023-01-15T01:51:06.199Z,7.41
2023-01-15T01:53:36.125Z,7.40
2023-01-15T01:56:06.138Z,7.40
2023-01-15T01:58:39.005Z,7.40
2023-01-15T02:01:09.422Z,7.39
2023-01-15T02:03:41.175Z,7.37
2023-01-15T02:06:14.559Z,7.36
2023-01-15T02:08:45.004Z,7.36
2023-01-15T02:11:20.119Z,7.35
2023-01-15T02:14:00.628Z,7.35
2023-01-15T02:16:40.088Z,7.35
2023-01-15T02:19:23.101Z,7.36
2023-01-15T02:21:58.828Z,7.40
2023-01-15T02:24:40.196Z,7.39
2023-01-15T02:27:20.897Z,7.37
2023-01-15T02:29:59.566Z,7.37
2023-01-15T02:32:38.292Z,7.35
2023-01-15T02:35:13.380Z,7.34
2023-01-15T02:37:48.067Z,7.32
2023-01-15T02:40:19.016Z,7.31
2023-01-15T02:42:52.735Z,7.33
2023-01-15T02:45:28.779Z,7.34
2023-01-15T02:48:02.671Z,7.32
2023-01-15T02:50:39.524Z,7.31
2023-01-15T02:53:13.705Z,7.33
2023-01-15T02:55:48.151Z,7.33
2023-01-15T02:58:26.646Z,7.31
2023-01-15T03:01:00.114Z,7.30
2023-01-15T03:03:37.580Z,7.30
2023-01-15T03:06:11.520Z,7.30
2023-01-15T03:08:41.671Z,7.29
2023-01-15T03:11:13.444Z,7.28
2023-01-15T03:13:52.074Z,7.27
2023-01-15T03:16:39.239Z,7.23
2023-01-15T03:19:19.337Z,7.22
2023-01-15T03:21:54.275Z,7.21
2023-01-15T03:24:30.183Z,7.20
2023-01-15T03:27:00.251Z,7.17
2023-01-15T03:29:36.572Z,7.15
2023-01-15T03:32:07.455Z,7.16
2023-01-15T03:34:43.667Z,7.17
2023-01-15T03:37:14.241Z,7.15
2023-01-15T03:39:45.333Z,7.17
2023-01-15T03:42:27.645Z,7.13
2023-01-15T03:45:06.356Z,7.10
2023-01-15T03:47:45.513Z,7.11
2023-01-15T03:50:22.920Z,7.11
2023-01-15T03:53:07.117Z,7.10
2023-01-15T03:55:46.796Z,7.08
2023-01-15T03:58:21.424Z,7.10
2023-01-15T04:00:58.561Z,7.08
2023-01-15T04:03:31.008Z,7.06
2023-01-15T04:06:03.035Z,7.06
2023-01-15T04:08:36.314Z,7.04
2023-01-15T04:11:06.506Z,7.03
2023-01-15T04:13:36.759Z,7.04
2023-01-15T04:16:09.867Z,7.05
2023-01-15T04:18:39.717Z,7.03
2023-01-15T04:21:09.511Z,7.01
2023-01-15T04:23:39.307Z,6.98
2023-01-15T04:26:09.193Z,6.97
2023-01-15T04:28:39.019Z,6.94
2023-01-15T04:31:11.732Z,6.91
2023-01-15T04:33:42.147Z,6.91
2023-01-15T04:36:14.598Z,6.89
2023-01-15T04:38:44.647Z,6.87
2023-01-15T04:41:26.858Z,6.86
2023-01-15T04:44:11.690Z,6.85
2023-01-15T04:46:47.907Z,6.82
2023-01-15T04:49:20.142Z,6.83
2023-01-15T04:51:50.086Z,6.80
2023-01-15T04:54:20.630Z,6.81
2023-01-15T04:56:51.963Z,6.80
2023-01-15T04:59:23.978Z,6.79
2023-01-15T05:02:06.382Z,6.79
2023-01-15T05:04:37.385Z,6.76
2023-01-15T05:07:08.117Z,6.74
2023-01-15T05:09:37.924Z,6.74
2023-01-15T05:12:08.866Z,6.73
2023-01-15T05:14:38.673Z,6.71
2023-01-15T05:17:11.075Z,6.67
2023-01-15T05:19:40.953Z,6.63
2023-01-15T05:22:10.796Z,6.62
2023-01-15T05:24:40.697Z,6.58
2023-01-15T05:27:10.544Z,6.58
2023-01-15T05:29:41.469Z,6.58
2023-01-15T05:32:13.813Z,6.55
2023-01-15T05:34:43.740Z,6.50
2023-01-15T05:37:13.564Z,6.48
2023-01-15T05:39:46.210Z,6.49
2023-01-15T05:42:15.999Z,6.47
2023-01-15T05:44:45.796Z,6.46
2023-01-15T05:47:18.222Z,6.47
2023-01-15T05:49:48.642Z,6.44
2023-01-15T05:52:18.948Z,6.43
2023-01-15T05:54:48.848Z,6.41
2023-01-15T05:57:18.610Z,6.38
2023-01-15T05:59:50.588Z,6.36
2023-01-15T06:02:23.024Z,6.37
2023-01-15T06:04:52.911Z,6.36
2023-01-15T06:07:22.729Z,6.34
2023-01-15T06:09:55.342Z,6.31
2023-01-15T06:12:25.117Z,6.30
2023-01-15T06:14:54.925Z,6.28
2023-01-15T06:17:27.328Z,6.27
2023-01-15T06:19:57.117Z,6.24
2023-01-15T06:22:26.934Z,6.24
2023-01-15T06:24:56.779Z,6.21
2023-01-15T06:27:26.573Z,6.20
2023-01-15T06:29:59.202Z,6.17
2023-01-15T06:32:31.909Z,6.19
2023-01-15T06:35:01.701Z,6.16
2023-01-15T06:37:31.466Z,6.15
2023-01-15T06:40:01.243Z,6.13
2023-01-15T06:42:43.457Z,6.10
2023-01-15T06:45:26.895Z,6.08
2023-01-15T06:47:59.881Z,6.08
2023-01-15T06:50:29.763Z,6.09
2023-01-15T06:52:59.657Z,6.10
2023-01-15T06:55:29.493Z,6.10
2023-01-15T06:57:59.326Z,6.11
2023-01-15T07:00:29.128Z,6.12
2023-01-15T07:03:03.037Z,6.12
2023-01-15T07:05:32.884Z,6.11
2023-01-15T07:08:02.784Z,6.11
2023-01-15T07:10:32.596Z,6.10
2023-01-15T07:13:02.412Z,6.10
2023-01-15T07:15:32.207Z,6.10
2023-01-15T07:18:05.521Z,6.09
2023-01-15T07:20:35.509Z,6.09
2023-01-15T07:23:05.253Z,6.09
2023-01-15T07:25:35.422Z,6.11
2023-01-15T07:28:05.201Z,6.12
2023-01-15T07:30:34.962Z,6.12
2023-01-15T07:33:07.443Z,6.11
2023-01-15T07:35:38.322Z,6.12
2023-01-15T07:38:08.114Z,6.13
2023-01-15T07:40:39.083Z,6.13
2023-01-15T07:43:21.275Z,6.14
2023-01-15T07:46:03.651Z,6.14
2023-01-15T07:48:48.508Z,6.13
2023-01-15T07:51:18.288Z,6.12
2023-01-15T07:53:48.057Z,6.11
2023-01-15T07:56:18.013Z,6.08
2023-01-15T07:58:50.333Z,6.07
2023-01-15T08:01:20.298Z,6.07
2023-01-15T08:03:52.740Z,6.10
2023-01-15T08:06:22.666Z,6.14
2023-01-15T08:08:52.463Z,6.17
2023-01-15T08:11:34.683Z,6.19
2023-01-15T08:14:16.838Z,6.19
2023-01-15T08:16:46.637Z,6.22
2023-01-15T08:19:19.040Z,6.25
2023-01-15T08:21:48.840Z,6.27
2023-01-15T08:24:18.590Z,6.29
2023-01-15T08:26:48.380Z,6.31
2023-01-15T08:29:18.223Z,6.33
2023-01-15T08:31:48.041Z,6.36
2023-01-15T08:34:23.302Z,6.40
2023-01-15T08:37:00.956Z,6.44
2023-01-15T08:39:32.690Z,6.44
2023-01-15T08:42:02.525Z,6.41
2023-01-15T08:44:33.271Z,6.40
2023-01-15T08:47:03.250Z,6.40
2023-01-15T08:49:35.632Z,6.39
2023-01-15T08:52:05.786Z,6.37
2023-01-15T08:54:35.567Z,6.35
2023-01-15T08:57:05.581Z,6.33
2023-01-15T08:59:35.308Z,6.31
2023-01-15T09:02:05.164Z,6.25
2023-01-15T09:04:38.695Z,6.18
2023-01-15T09:07:08.611Z,6.16
2023-01-15T09:09:38.492Z,6.19
2023-01-15T09:12:09.080Z,6.24
2023-01-15T09:14:58.176Z,6.31
2023-01-15T09:17:28.657Z,6.38
2023-01-15T09:20:01.029Z,6.47
2023-01-15T09:22:31.267Z,6.49
2023-01-15T09:25:01.770Z,6.52
2023-01-15T09:27:34.240Z,6.56
2023-01-15T09:30:04.495Z,6.59
2023-01-15T09:32:34.381Z,6.61
2023-01-15T09:35:07.101Z,6.55
2023-01-15T09:37:36.991Z,6.42
2023-01-15T09:40:09.291Z,6.32
2023-01-15T09:42:49.370Z,6.28
2023-01-15T09:45:27.663Z,6.30
2023-01-15T09:48:18.386Z,6.36
2023-01-15T09:51:05.135Z,6.45
2023-01-15T09:53:45.497Z,6.52
2023-01-15T09:56:23.686Z,6.56
2023-01-15T09:58:54.231Z,6.64
2023-01-15T10:01:28.997Z,6.69
2023-01-15T10:04:05.444Z,6.72
2023-01-15T10:06:47.589Z,6.79
2023-01-15T10:09:21.061Z,6.76
2023-01-15T10:12:12.050Z,6.77
2023-01-15T10:14:50.799Z,6.71
2023-01-15T10:17:28.776Z,6.66
2023-01-15T10:20:00.143Z,6.62
2023-01-15T10:22:52.778Z,6.64
2023-01-15T10:25:30.265Z,6.66
2023-01-15T10:28:08.236Z,6.74
2023-01-15T10:30:49.618Z,6.82
2023-01-15T10:33:37.061Z,6.93
2023-01-15T10:36:13.512Z,7.00
2023-01-15T10:38:54.243Z,7.06
2023-01-15T10:41:49.567Z,7.11
2023-01-15T10:44:24.560Z,7.11
2023-01-15T10:46:59.610Z,7.11
2023-01-15T10:49:32.041Z,7.09
2023-01-15T10:52:08.735Z,7.11
2023-01-15T10:54:45.420Z,7.13
2023-01-15T10:57:22.383Z,7.17
2023-01-15T10:59:55.582Z,7.22
2023-01-15T11:02:31.469Z,7.27
2023-01-15T11:05:01.463Z,7.33
2023-01-15T11:07:52.939Z,7.37
2023-01-15T11:10:32.165Z,7.40
2023-01-15T11:13:18.201Z,7.44
2023-01-15T11:16:02.021Z,7.47
2023-01-15T11:18:50.687Z,7.47
2023-01-15T11:21:24.020Z,7.49
2023-01-15T11:23:54.987Z,7.47
2023-01-15T11:26:30.730Z,7.43
2023-01-15T11:29:02.821Z,7.38
2023-01-15T11:31:40.047Z,7.35
2023-01-15T11:34:21.934Z,7.32
2023-01-15T11:36:51.970Z,7.30
2023-01-15T11:39:31.420Z,7.24
2023-01-15T11:42:21.349Z,7.14
2023-01-15T11:45:07.283Z,6.97
2023-01-15T11:47:49.473Z,6.84
2023-01-15T11:50:33.714Z,6.75
2023-01-15T11:53:03.483Z,6.70
2023-01-15T11:55:34.058Z,6.67
2023-01-15T11:58:11.073Z,6.63
2023-01-15T12:00:46.986Z,6.60
2023-01-15T12:03:20.704Z,6.58
2023-01-15T12:05:57.120Z,6.53
2023-01-15T12:08:40.395Z,6.53
2023-01-15T12:11:26.781Z,6.54
2023-01-15T12:14:14.928Z,6.53
2023-01-15T12:16:51.496Z,6.53
2023-01-15T12:19:29.361Z,6.50
2023-01-15T12:22:20.314Z,6.51
2023-01-15T12:25:31.110Z,6.52
2023-01-15T12:28:07.982Z,6.50
2023-01-15T12:30:56.120Z,6.51
2023-01-15T12:33:39.690Z,6.52
2023-01-15T12:36:15.448Z,6.52
2023-01-15T12:38:51.506Z,6.52
2023-01-15T12:41:27.150Z,6.50
2023-01-15T12:44:13.426Z,6.48
2023-01-15T12:46:48.040Z,6.48
2023-01-15T12:49:31.087Z,6.46
2023-01-15T12:52:08.073Z,6.46
2023-01-15T12:54:44.629Z,6.45
2023-01-15T12:57:19.666Z,6.46
2023-01-15T12:59:54.243Z,6.47
2023-01-15T13:02:38.076Z,6.48
2023-01-15T13:05:20.288Z,6.50
2023-01-15T13:07:56.060Z,6.53
2023-01-15T13:10:31.014Z,6.53
2023-01-15T13:13:12.630Z,6.54
2023-01-15T13:15:52.979Z,6.56
2023-01-15T13:18:35.053Z,6.58
2023-01-15T13:21:12.766Z,6.59
2023-01-15T13:23:58.532Z,6.62
2023-01-15T13:26:48.550Z,6.62
2023-01-15T13:29:28.692Z,6.62
2023-01-15T13:32:06.447Z,6.61
2023-01-15T13:34:45.591Z,6.60
2023-01-15T13:37:24.788Z,6.58
2023-01-15T13:39:57.145Z,6.57
2023-01-15T13:42:37.864Z,6.58
2023-01-15T13:45:26.914Z,6.59
2023-01-15T13:48:01.687Z,6.58
2023-01-15T13:50:37.575Z,6.59
2023-01-15T13:53:17.180Z,6.60
2023-01-15T13:55:55.507Z,6.64
2023-01-15T13:58:29.068Z,6.66
2023-01-15T14:01:10.923Z,6.69
2023-01-15T14:03:41.066Z,6.70
2023-01-15T14:06:13.579Z,6.75
2023-01-15T14:08:45.723Z,6.77
2023-01-15T14:11:40.700Z,6.81
2023-01-15T14:14:37.989Z,6.82
2023-01-15T14:17:23.334Z,6.83
2023-01-15T14:20:30.738Z,6.89
2023-01-15T14:23:16.226Z,6.94
2023-01-15T14:25:56.218Z,6.96
2023-01-15T14:28:44.537Z,6.99
2023-01-15T14:31:53.129Z,7.01
2023-01-15T14:34:28.807Z,7.00
2023-01-15T14:37:01.617Z,7.00
2023-01-15T14:39:44.549Z,7.03
2023-01-15T14:42:31.629Z,7.01
2023-01-15T14:45:04.754Z,7.01
2023-01-15T14:47:39.179Z,7.02
2023-01-15T14:50:31.420Z,7.02
2023-01-15T14:53:07.668Z,7.01
2023-01-15T14:55:42.432Z,7.05
2023-01-15T14:58:20.962Z,7.06
2023-01-15T15:00:56.092Z,7.04
2023-01-15T15:03:36.263Z,7.03
2023-01-15T15:06:08.118Z,7.03
2023-01-15T15:08:38.686Z,7.03
2023-01-15T15:11:40.676Z,7.03
2023-01-15T15:14:13.461Z,7.03
2023-01-15T15:16:49.398Z,7.03
2023-01-15T15:19:30.080Z,7.00
2023-01-15T15:22:06.675Z,6.99
2023-01-15T15:24:38.194Z,6.97
2023-01-15T15:27:22.137Z,6.98
2023-01-15T15:29:52.542Z,6.98
2023-01-15T15:32:25.839Z,6.98
2023-01-15T15:34:57.753Z,6.97
2023-01-15T15:37:30.201Z,6.96
2023-01-15T15:40:03.109Z,6.96
2023-01-15T15:42:52.646Z,6.95
2023-01-15T15:45:37.689Z,6.93
2023-01-15T15:48:32.765Z,6.92
2023-01-15T15:51:03.140Z,6.90
2023-01-15T15:53:32.938Z,6.90
2023-01-15T15:56:04.126Z,6.89
2023-01-15T15:58:40.217Z,6.90
2023-01-15T16:01:13.985Z,6.88
2023-01-15T16:03:50.550Z,6.87
2023-01-15T16:06:24.778Z,6.84
2023-01-15T16:09:01.650Z,6.82
2023-01-15T16:11:31.644Z,6.80
2023-01-15T16:14:08.809Z,6.82
2023-01-15T16:16:39.479Z,6.78
2023-01-15T16:19:15.867Z,6.74
2023-01-15T16:21:45.972Z,6.71
2023-01-15T16:24:27.086Z,6.71
2023-01-15T16:27:09.285Z,6.69
2023-01-15T16:29:43.783Z,6.69
2023-01-15T16:32:15.064Z,6.70
2023-01-15T16:34:45.330Z,6.68
2023-01-15T16:37:30.684Z,6.66
2023-01-15T16:40:02.450Z,6.64
2023-01-15T16:42:38.054Z,6.63
2023-01-15T16:45:23.416Z,6.63
2023-01-15T16:48:18.360Z,6.60
2023-01-15T16:50:48.178Z,6.57
2023-01-15T16:53:34.748Z,6.57
2023-01-15T16:56:04.997Z,6.58
2023-01-15T16:58:39.809Z,6.58
2023-01-15T17:01:42.397Z,6.56
2023-01-15T17:04:23.752Z,6.55
2023-01-15T17:07:02.225Z,6.53
2023-01-15T17:09:35.546Z,6.53
2023-01-15T17:12:09.662Z,6.52
2023-01-15T17:14:39.422Z,6.52
2023-01-15T17:17:28.387Z,6.51
2023-01-15T17:19:59.445Z,6.48
2023-01-15T17:22:32.272Z,6.48
2023-01-15T17:25:03.946Z,6.48
2023-01-15T17:27:34.002Z,6.46
2023-01-15T17:30:03.867Z,6.46
2023-01-15T17:32:40.400Z,6.46
2023-01-15T17:35:23.362Z,6.45
2023-01-15T17:37:53.530Z,6.44
2023-01-15T17:40:23.896Z,6.43
2023-01-15T17:42:54.053Z,6.40
2023-01-15T17:45:26.302Z,6.40
2023-01-15T17:47:59.017Z,6.40
2023-01-15T17:50:29.380Z,6.39
2023-01-15T17:52:59.243Z,6.41
2023-01-15T17:55:41.709Z,6.40
2023-01-15T17:58:27.646Z,6.39
2023-01-15T18:01:10.156Z,6.39
2023-01-15T18:04:00.399Z,6.40
2023-01-15T18:06:31.007Z,6.36
2023-01-15T18:09:03.512Z,6.32
2023-01-15T18:11:33.722Z,6.31
2023-01-15T18:14:03.613Z,6.30
2023-01-15T18:16:33.655Z,6.29
2023-01-15T18:19:06.184Z,6.29
2023-01-15T18:21:41.446Z,6.29
2023-01-15T18:24:12.968Z,6.31
2023-01-15T18:26:45.249Z,6.32
2023-01-15T18:29:15.144Z,6.33
2023-01-15T18:31:45.354Z,6.34
2023-01-15T18:34:18.122Z,6.33
2023-01-15T18:36:47.908Z,6.31
2023-01-15T18:39:17.868Z,6.30
2023-01-15T18:42:00.031Z,6.29
2023-01-15T18:44:42.534Z,6.26
2023-01-15T18:47:14.146Z,6.25
2023-01-15T18:49:48.053Z,6.23
2023-01-15T18:52:31.667Z,6.19
2023-01-15T18:55:01.416Z,6.19
2023-01-15T18:57:31.206Z,6.19
2023-01-15T19:00:00.994Z,6.17
2023-01-15T19:02:30.835Z,6.16
2023-01-15T19:05:03.286Z,6.16
2023-01-15T19:07:33.582Z,6.15
2023-01-15T19:10:03.557Z,6.13
2023-01-15T19:12:33.320Z,6.14
2023-01-15T19:15:15.473Z,6.14
2023-01-15T19:17:57.619Z,6.12
2023-01-15T19:20:29.985Z,6.12
2023-01-15T19:23:06.052Z,6.13
2023-01-15T19:25:40.410Z,6.13
2023-01-15T19:28:11.806Z,6.12
2023-01-15T19:30:42.554Z,6.13
2023-01-15T19:33:13.089Z,6.12
2023-01-15T19:35:45.422Z,6.15
2023-01-15T19:38:15.229Z,6.14
2023-01-15T19:40:44.988Z,6.16
2023-01-15T19:43:27.162Z,6.18
2023-01-15T19:46:09.347Z,6.18
2023-01-15T19:48:51.533Z,6.17
2023-01-15T19:51:44.031Z,6.15
2023-01-15T19:54:13.816Z,6.12
2023-01-15T19:56:43.647Z,6.12
2023-01-15T19:59:13.431Z,6.14
2023-01-15T20:01:45.266Z,6.15
2023-01-15T20:04:15.083Z,6.16
2023-01-15T20:06:47.611Z,6.15
2023-01-15T20:09:17.613Z,6.17
2023-01-15T20:11:59.567Z,6.16
2023-01-15T20:14:32.329Z,6.14
2023-01-15T20:17:02.087Z,6.14
2023-01-15T20:19:31.841Z,6.11
2023-01-15T20:22:04.237Z,6.11
2023-01-15T20:24:34.004Z,6.10
2023-01-15T20:27:03.863Z,6.11
2023-01-15T20:29:33.634Z,6.15
2023-01-15T20:32:03.407Z,6.16
2023-01-15T20:34:36.536Z,6.18
2023-01-15T20:37:09.217Z,6.18
2023-01-15T20:39:40.490Z,6.18
2023-01-15T20:42:22.642Z,6.19
2023-01-15T20:44:58.450Z,6.18
2023-01-15T20:47:42.866Z,6.19
2023-01-15T20:50:15.918Z,6.22
2023-01-15T20:52:52.081Z,6.23
2023-01-15T20:55:22.960Z,6.24
2023-01-15T20:57:53.017Z,6.26
2023-01-15T21:00:24.100Z,6.28
2023-01-15T21:02:55.076Z,6.31
2023-01-15T21:05:24.885Z,6.34
2023-01-15T21:07:57.350Z,6.35
2023-01-15T21:10:28.065Z,6.34
2023-01-15T21:12:57.974Z,6.36
2023-01-15T21:15:27.765Z,6.35
2023-01-15T21:17:57.541Z,6.35
2023-01-15T21:20:28.133Z,6.35
2023-01-15T21:23:00.877Z,6.34
2023-01-15T21:25:30.692Z,6.33
2023-01-15T21:28:00.826Z,6.30
2023-01-15T21:30:30.860Z,6.28
2023-01-15T21:33:00.743Z,6.29
2023-01-15T21:35:30.731Z,6.28
2023-01-15T21:38:03.171Z,6.28
2023-01-15T21:40:32.934Z,6.26
2023-01-15T21:43:15.216Z,6.23
2023-01-15T21:45:45.376Z,6.19
2023-01-15T21:48:15.341Z,6.15
2023-01-15T21:50:45.206Z,6.11
2023-01-15T21:53:17.652Z,6.09
2023-01-15T21:55:51.838Z,6.06
2023-01-15T21:58:21.658Z,6.03
2023-01-15T22:00:52.075Z,6.00
2023-01-15T22:03:21.928Z,5.98
2023-01-15T22:05:51.691Z,5.97
2023-01-15T22:08:24.145Z,5.97
2023-01-15T22:10:53.899Z,5.97
2023-01-15T22:13:23.725Z,5.97
2023-01-15T22:15:57.125Z,5.98
2023-01-15T22:18:28.049Z,5.94
2023-01-15T22:21:01.419Z,5.93
2023-01-15T22:23:34.097Z,5.93
2023-01-15T22:26:04.147Z,5.91
2023-01-15T22:28:33.961Z,5.90
2023-01-15T22:31:08.184Z,5.90
2023-01-15T22:33:38.018Z,5.90
2023-01-15T22:36:13.057Z,5.88
2023-01-15T22:38:47.100Z,5.87
2023-01-15T22:41:36.965Z,5.84
2023-01-15T22:44:06.985Z,5.82
2023-01-15T22:46:37.627Z,5.82
2023-01-15T22:49:07.549Z,5.84
2023-01-15T22:51:37.395Z,5.84
2023-01-15T22:54:09.844Z,5.86
2023-01-15T22:56:39.604Z,5.89
2023-01-15T22:59:09.823Z,5.88
2023-01-15T23:01:39.688Z,5.87
2023-01-15T23:04:14.917Z,5.87
2023-01-15T23:06:45.155Z,5.86
2023-01-15T23:09:17.843Z,5.86
2023-01-15T23:11:48.283Z,5.86
2023-01-15T23:14:18.495Z,5.84
2023-01-15T23:16:48.328Z,5.85
2023-01-15T23:19:18.839Z,5.85
2023-01-15T23:21:48.660Z,5.85
2023-01-15T23:24:21.109Z,5.85
2023-01-15T23:26:50.920Z,5.81
2023-01-15T23:29:20.771Z,5.81
2023-01-15T23:31:50.544Z,5.84
2023-01-15T23:34:20.339Z,5.84
2023-01-15T23:36:50.192Z,5.84
2023-01-15T23:39:22.876Z,5.83
2023-01-15T23:42:05.095Z,5.82
2023-01-15T23:44:47.310Z,5.81
2023-01-15T23:47:17.135Z,5.79
2023-01-15T23:49:46.945Z,5.77
2023-01-15T23:52:16.955Z,5.76
2023-01-15T23:54:49.330Z,5.76
2023-01-15T23:57:19.311Z,5.77
2023-01-15T23:59:49.075Z,5.76
